CMB804 Details

Departure: Guantánamo Bay Naval Air Station (MUGM)
Arrival: Norfolk Naval Station (Chambers Field) (KNGU)
Route: SOUTP EASTP ZIN Y350 ZQA BR65V ZFP WOLFO AR18 PANAL AR3 CLB ISO DRONE2
Notes: USTRANSCOM CONTRACT FLIGHT | OVERFLIGHT OF CUBA PROHIBITED, SOUTP & EASTP FIXES MANDATORY


Current Weather Information
MUGM 252256Z 20005KT 9999 FEW030 FEW120 27/25 A2994 RMK SLP140 T02670250
KNGU 252345Z 05015G21KT 6SM -RA BR SCT055 SCT065 OVC085 11/09 A2993 RMK AO2 OCNL LTGICCC DSNT SE T1 SET TSB22TSE27TSB38TSE43 P0010 T01110094